sensor_id;sensor_type;location;lat;lon;timestamp;P1;durP1;ratioP1;P2;durP2;ratioP2
36279;SDS011;22317;47.936;12.742;2022-11-15T00:02:14;3.47;;;3.10;;
36279;SDS011;22317;47.936;12.742;2022-11-15T00:04:58;3.53;;;3.23;;
36279;SDS011;22317;47.936;12.742;2022-11-15T00:07:42;3.67;;;3.37;;
36279;SDS011;22317;47.936;12.742;2022-11-15T00:10:27;3.90;;;3.43;;
36279;SDS011;22317;47.936;12.742;2022-11-15T00:13:12;4.17;;;3.10;;
36279;SDS011;22317;47.936;12.742;2022-11-15T00:15:57;3.47;;;3.20;;
36279;SDS011;22317;47.936;12.742;2022-11-15T00:18:42;3.23;;;2.93;;
36279;SDS011;22317;47.936;12.742;2022-11-15T00:21:26;3.40;;;3.10;;
36279;SDS011;22317;47.936;12.742;2022-11-15T00:24:11;6.57;;;3.23;;
36279;SDS011;22317;47.936;12.742;2022-11-15T00:26:55;2.80;;;2.60;;
36279;SDS011;22317;47.936;12.742;2022-11-15T00:29:39;2.77;;;2.57;;
36279;SDS011;22317;47.936;12.742;2022-11-15T00:32:30;4.40;;;2.90;;
36279;SDS011;22317;47.936;12.742;2022-11-15T00:35:14;3.03;;;2.50;;
36279;SDS011;22317;47.936;12.742;2022-11-15T00:37:59;3.13;;;2.47;;
36279;SDS011;22317;47.936;12.742;2022-11-15T00:40:44;3.00;;;2.80;;
36279;SDS011;22317;47.936;12.742;2022-11-15T00:43:29;3.30;;;3.00;;
36279;SDS011;22317;47.936;12.742;2022-11-15T00:46:14;3.77;;;2.90;;
36279;SDS011;22317;47.936;12.742;2022-11-15T00:48:58;2.67;;;2.47;;
36279;SDS011;22317;47.936;12.742;2022-11-15T00:51:43;2.83;;;2.63;;
36279;SDS011;22317;47.936;12.742;2022-11-15T00:54:27;3.20;;;2.27;;
36279;SDS011;22317;47.936;12.742;2022-11-15T00:57:12;2.50;;;2.30;;
36279;SDS011;22317;47.936;12.742;2022-11-15T00:59:56;2.43;;;2.23;;
36279;SDS011;22317;47.936;12.742;2022-11-15T01:02:41;2.57;;;2.37;;
36279;SDS011;22317;47.936;12.742;2022-11-15T01:05:26;5.10;;;2.63;;
36279;SDS011;22317;47.936;12.742;2022-11-15T01:08:14;5.13;;;3.30;;
36279;SDS011;22317;47.936;12.742;2022-11-15T01:11:03;3.70;;;3.37;;
36279;SDS011;22317;47.936;12.742;2022-11-15T01:13:47;3.47;;;3.10;;
36279;SDS011;22317;47.936;12.742;2022-11-15T01:16:32;5.03;;;3.00;;
36279;SDS011;22317;47.936;12.742;2022-11-15T01:19:17;2.70;;;2.50;;
36279;SDS011;22317;47.936;12.742;2022-11-15T01:22:01;3.17;;;2.40;;
36279;SDS011;22317;47.936;12.742;2022-11-15T01:24:46;2.60;;;2.40;;
36279;SDS011;22317;47.936;12.742;2022-11-15T01:27:30;2.60;;;2.40;;
36279;SDS011;22317;47.936;12.742;2022-11-15T01:30:15;2.80;;;2.60;;
36279;SDS011;22317;47.936;12.742;2022-11-15T01:32:59;2.67;;;2.43;;
36279;SDS011;22317;47.936;12.742;2022-11-15T01:35:44;3.23;;;2.47;;
36279;SDS011;22317;47.936;12.742;2022-11-15T01:38:28;3.23;;;2.50;;
36279;SDS011;22317;47.936;12.742;2022-11-15T01:41:19;3.70;;;2.50;;
36279;SDS011;22317;47.936;12.742;2022-11-15T01:47:12;7.00;;;5.37;;
36279;SDS011;22317;47.936;12.742;2022-11-15T01:50:02;7.83;;;5.30;;
36279;SDS011;22317;47.936;12.742;2022-11-15T01:52:47;5.17;;;2.87;;
36279;SDS011;22317;47.936;12.742;2022-11-15T01:55:32;2.87;;;2.33;;
36279;SDS011;22317;47.936;12.742;2022-11-15T01:58:17;2.37;;;2.13;;
36279;SDS011;22317;47.936;12.742;2022-11-15T02:01:01;3.50;;;2.80;;
36279;SDS011;22317;47.936;12.742;2022-11-15T02:03:49;3.40;;;2.20;;
36279;SDS011;22317;47.936;12.742;2022-11-15T02:06:39;2.50;;;2.30;;
36279;SDS011;22317;47.936;12.742;2022-11-15T02:09:24;3.50;;;2.10;;
36279;SDS011;22317;47.936;12.742;2022-11-15T02:12:09;2.80;;;2.47;;
36279;SDS011;22317;47.936;12.742;2022-11-15T02:14:54;2.70;;;2.43;;
36279;SDS011;22317;47.936;12.742;2022-11-15T02:18:05;2.40;;;2.20;;
36279;SDS011;22317;47.936;12.742;2022-11-15T02:32:58;2.17;;;1.97;;
36279;SDS011;22317;47.936;12.742;2022-11-15T02:38:47;2.23;;;2.13;;
36279;SDS011;22317;47.936;12.742;2022-11-15T02:41:43;2.53;;;2.13;;
36279;SDS011;22317;47.936;12.742;2022-11-15T02:47:14;2.27;;;2.07;;
36279;SDS011;22317;47.936;12.742;2022-11-15T02:50:02;1.90;;;1.80;;
36279;SDS011;22317;47.936;12.742;2022-11-15T02:52:48;2.20;;;2.10;;
36279;SDS011;22317;47.936;12.742;2022-11-15T02:55:48;2.40;;;2.20;;
36279;SDS011;22317;47.936;12.742;2022-11-15T03:04:19;2.43;;;2.23;;
36279;SDS011;22317;47.936;12.742;2022-11-15T03:07:13;2.30;;;2.10;;
36279;SDS011;22317;47.936;12.742;2022-11-15T03:10:05;2.23;;;2.03;;
36279;SDS011;22317;47.936;12.742;2022-11-15T03:15:54;1.97;;;1.87;;
36279;SDS011;22317;47.936;12.742;2022-11-15T03:18:47;2.13;;;1.93;;
36279;SDS011;22317;47.936;12.742;2022-11-15T03:21:34;3.27;;;2.40;;
36279;SDS011;22317;47.936;12.742;2022-11-15T03:24:19;2.47;;;2.27;;
36279;SDS011;22317;47.936;12.742;2022-11-15T03:27:05;2.40;;;2.13;;
36279;SDS011;22317;47.936;12.742;2022-11-15T03:29:52;4.60;;;2.20;;
36279;SDS011;22317;47.936;12.742;2022-11-15T03:32:42;4.20;;;2.00;;
36279;SDS011;22317;47.936;12.742;2022-11-15T03:35:30;2.10;;;2.00;;
36279;SDS011;22317;47.936;12.742;2022-11-15T03:41:00;5.40;;;2.20;;
36279;SDS011;22317;47.936;12.742;2022-11-15T03:43:50;2.50;;;1.60;;
36279;SDS011;22317;47.936;12.742;2022-11-15T03:46:39;1.93;;;1.80;;
36279;SDS011;22317;47.936;12.742;2022-11-15T03:49:29;2.03;;;1.93;;
36279;SDS011;22317;47.936;12.742;2022-11-15T03:52:17;1.83;;;1.73;;
36279;SDS011;22317;47.936;12.742;2022-11-15T03:55:03;2.20;;;1.97;;
36279;SDS011;22317;47.936;12.742;2022-11-15T03:57:51;2.07;;;1.97;;
36279;SDS011;22317;47.936;12.742;2022-11-15T04:00:37;2.57;;;2.37;;
36279;SDS011;22317;47.936;12.742;2022-11-15T04:03:22;2.43;;;2.20;;
36279;SDS011;22317;47.936;12.742;2022-11-15T04:06:06;3.07;;;1.60;;
36279;SDS011;22317;47.936;12.742;2022-11-15T04:08:50;3.33;;;2.60;;
36279;SDS011;22317;47.936;12.742;2022-11-15T04:11:35;4.47;;;4.07;;
36279;SDS011;22317;47.936;12.742;2022-11-15T04:14:20;4.97;;;3.93;;
36279;SDS011;22317;47.936;12.742;2022-11-15T04:17:05;3.63;;;2.97;;
36279;SDS011;22317;47.936;12.742;2022-11-15T04:19:49;3.10;;;2.20;;
36279;SDS011;22317;47.936;12.742;2022-11-15T04:22:53;2.60;;;2.40;;
36279;SDS011;22317;47.936;12.742;2022-11-15T04:25:58;3.23;;;2.53;;
36279;SDS011;22317;47.936;12.742;2022-11-15T04:28:43;3.20;;;2.80;;
36279;SDS011;22317;47.936;12.742;2022-11-15T04:31:46;2.60;;;2.37;;
36279;SDS011;22317;47.936;12.742;2022-11-15T04:34:31;3.93;;;2.17;;
36279;SDS011;22317;47.936;12.742;2022-11-15T04:37:16;2.03;;;1.87;;
36279;SDS011;22317;47.936;12.742;2022-11-15T04:40:00;3.30;;;2.33;;
36279;SDS011;22317;47.936;12.742;2022-11-15T04:42:44;2.87;;;1.93;;
36279;SDS011;22317;47.936;12.742;2022-11-15T04:45:28;7.60;;;2.03;;
36279;SDS011;22317;47.936;12.742;2022-11-15T04:48:13;2.43;;;2.00;;
36279;SDS011;22317;47.936;12.742;2022-11-15T04:50:57;2.80;;;2.20;;
36279;SDS011;22317;47.936;12.742;2022-11-15T04:53:42;15.73;;;7.73;;
36279;SDS011;22317;47.936;12.742;2022-11-15T04:56:26;64.87;;;28.10;;
36279;SDS011;22317;47.936;12.742;2022-11-15T04:59:11;19.63;;;10.10;;
36279;SDS011;22317;47.936;12.742;2022-11-15T05:01:56;19.20;;;10.70;;
36279;SDS011;22317;47.936;12.742;2022-11-15T05:04:40;25.23;;;12.90;;
36279;SDS011;22317;47.936;12.742;2022-11-15T05:07:25;23.57;;;10.27;;
36279;SDS011;22317;47.936;12.742;2022-11-15T05:10:09;17.47;;;9.00;;
36279;SDS011;22317;47.936;12.742;2022-11-15T05:12:54;11.90;;;6.53;;
36279;SDS011;22317;47.936;12.742;2022-11-15T05:15:39;6.83;;;4.73;;
36279;SDS011;22317;47.936;12.742;2022-11-15T05:18:23;7.87;;;5.07;;
36279;SDS011;22317;47.936;12.742;2022-11-15T05:21:08;4.73;;;3.97;;
36279;SDS011;22317;47.936;12.742;2022-11-15T05:23:53;4.33;;;3.90;;
36279;SDS011;22317;47.936;12.742;2022-11-15T05:26:38;22.53;;;11.13;;
36279;SDS011;22317;47.936;12.742;2022-11-15T05:29:22;10.17;;;7.63;;
36279;SDS011;22317;47.936;12.742;2022-11-15T05:32:08;4.40;;;4.00;;
36279;SDS011;22317;47.936;12.742;2022-11-15T05:34:54;5.60;;;3.40;;
36279;SDS011;22317;47.936;12.742;2022-11-15T05:37:39;4.83;;;2.73;;
36279;SDS011;22317;47.936;12.742;2022-11-15T05:40:24;2.77;;;2.57;;
36279;SDS011;22317;47.936;12.742;2022-11-15T05:43:10;2.40;;;2.20;;
36279;SDS011;22317;47.936;12.742;2022-11-15T05:45:55;2.50;;;2.30;;
36279;SDS011;22317;47.936;12.742;2022-11-15T05:48:41;4.67;;;4.27;;
36279;SDS011;22317;47.936;12.742;2022-11-15T05:51:28;3.17;;;2.90;;
36279;SDS011;22317;47.936;12.742;2022-11-15T05:54:14;6.13;;;4.17;;
36279;SDS011;22317;47.936;12.742;2022-11-15T05:56:59;5.53;;;4.60;;
36279;SDS011;22317;47.936;12.742;2022-11-15T05:59:44;4.63;;;3.73;;
36279;SDS011;22317;47.936;12.742;2022-11-15T06:02:28;3.60;;;3.30;;
36279;SDS011;22317;47.936;12.742;2022-11-15T06:05:13;5.50;;;4.57;;
36279;SDS011;22317;47.936;12.742;2022-11-15T06:07:58;6.40;;;4.20;;
36279;SDS011;22317;47.936;12.742;2022-11-15T06:10:42;4.77;;;4.30;;
36279;SDS011;22317;47.936;12.742;2022-11-15T06:13:27;6.73;;;4.30;;
36279;SDS011;22317;47.936;12.742;2022-11-15T06:16:11;6.87;;;4.60;;
36279;SDS011;22317;47.936;12.742;2022-11-15T06:18:56;32.80;;;14.13;;
36279;SDS011;22317;47.936;12.742;2022-11-15T06:21:40;16.00;;;7.30;;
36279;SDS011;22317;47.936;12.742;2022-11-15T06:24:25;8.10;;;4.67;;
36279;SDS011;22317;47.936;12.742;2022-11-15T06:27:10;6.73;;;4.17;;
36279;SDS011;22317;47.936;12.742;2022-11-15T06:29:55;5.13;;;3.63;;
36279;SDS011;22317;47.936;12.742;2022-11-15T06:32:39;7.03;;;4.53;;
36279;SDS011;22317;47.936;12.742;2022-11-15T06:35:24;5.43;;;4.00;;
36279;SDS011;22317;47.936;12.742;2022-11-15T06:38:09;3.73;;;3.43;;
36279;SDS011;22317;47.936;12.742;2022-11-15T06:40:54;9.20;;;4.40;;
36279;SDS011;22317;47.936;12.742;2022-11-15T06:43:39;9.67;;;4.00;;
36279;SDS011;22317;47.936;12.742;2022-11-15T06:46:24;7.67;;;4.33;;
36279;SDS011;22317;47.936;12.742;2022-11-15T06:49:08;6.13;;;3.43;;
36279;SDS011;22317;47.936;12.742;2022-11-15T06:51:53;4.83;;;4.23;;
36279;SDS011;22317;47.936;12.742;2022-11-15T06:54:37;3.97;;;3.67;;
36279;SDS011;22317;47.936;12.742;2022-11-15T06:57:22;5.33;;;4.23;;
36279;SDS011;22317;47.936;12.742;2022-11-15T07:00:07;3.90;;;3.53;;
36279;SDS011;22317;47.936;12.742;2022-11-15T07:02:52;7.83;;;3.90;;
36279;SDS011;22317;47.936;12.742;2022-11-15T07:05:36;8.03;;;3.70;;
36279;SDS011;22317;47.936;12.742;2022-11-15T07:08:22;8.47;;;4.90;;
36279;SDS011;22317;47.936;12.742;2022-11-15T07:11:07;7.27;;;5.50;;
36279;SDS011;22317;47.936;12.742;2022-11-15T07:13:52;6.43;;;5.63;;
36279;SDS011;22317;47.936;12.742;2022-11-15T07:16:37;9.63;;;5.63;;
36279;SDS011;22317;47.936;12.742;2022-11-15T07:19:21;5.53;;;4.83;;
36279;SDS011;22317;47.936;12.742;2022-11-15T07:22:06;6.57;;;3.93;;
36279;SDS011;22317;47.936;12.742;2022-11-15T07:24:50;5.77;;;4.43;;
36279;SDS011;22317;47.936;12.742;2022-11-15T07:27:35;7.63;;;4.93;;
36279;SDS011;22317;47.936;12.742;2022-11-15T07:30:19;12.93;;;6.17;;
36279;SDS011;22317;47.936;12.742;2022-11-15T07:33:04;11.97;;;6.23;;
36279;SDS011;22317;47.936;12.742;2022-11-15T07:35:48;9.83;;;7.23;;
36279;SDS011;22317;47.936;12.742;2022-11-15T07:38:34;9.20;;;5.17;;
36279;SDS011;22317;47.936;12.742;2022-11-15T07:41:19;8.13;;;6.00;;
36279;SDS011;22317;47.936;12.742;2022-11-15T07:44:03;8.83;;;5.70;;
36279;SDS011;22317;47.936;12.742;2022-11-15T07:46:48;4.87;;;4.33;;
36279;SDS011;22317;47.936;12.742;2022-11-15T07:49:32;5.40;;;3.83;;
36279;SDS011;22317;47.936;12.742;2022-11-15T07:52:17;8.70;;;4.57;;
36279;SDS011;22317;47.936;12.742;2022-11-15T07:55:01;5.13;;;4.50;;
36279;SDS011;22317;47.936;12.742;2022-11-15T07:57:46;6.23;;;5.27;;
36279;SDS011;22317;47.936;12.742;2022-11-15T08:00:31;6.40;;;5.07;;
36279;SDS011;22317;47.936;12.742;2022-11-15T08:03:16;10.00;;;6.20;;
36279;SDS011;22317;47.936;12.742;2022-11-15T08:06:01;8.43;;;6.27;;
36279;SDS011;22317;47.936;12.742;2022-11-15T08:08:46;8.63;;;5.10;;
36279;SDS011;22317;47.936;12.742;2022-11-15T08:11:31;7.60;;;5.00;;
36279;SDS011;22317;47.936;12.742;2022-11-15T08:14:16;7.13;;;5.10;;
36279;SDS011;22317;47.936;12.742;2022-11-15T08:17:00;9.63;;;4.77;;
36279;SDS011;22317;47.936;12.742;2022-11-15T08:19:45;5.20;;;4.47;;
36279;SDS011;22317;47.936;12.742;2022-11-15T08:22:29;6.80;;;4.50;;
36279;SDS011;22317;47.936;12.742;2022-11-15T08:25:14;6.40;;;3.90;;
36279;SDS011;22317;47.936;12.742;2022-11-15T08:28:00;4.00;;;3.70;;
36279;SDS011;22317;47.936;12.742;2022-11-15T08:30:46;5.30;;;4.07;;
36279;SDS011;22317;47.936;12.742;2022-11-15T08:33:31;5.77;;;4.23;;
36279;SDS011;22317;47.936;12.742;2022-11-15T08:36:18;4.80;;;4.10;;
36279;SDS011;22317;47.936;12.742;2022-11-15T08:39:02;5.13;;;4.00;;
36279;SDS011;22317;47.936;12.742;2022-11-15T08:41:46;7.70;;;4.17;;
36279;SDS011;22317;47.936;12.742;2022-11-15T08:44:30;3.80;;;3.33;;
36279;SDS011;22317;47.936;12.742;2022-11-15T08:47:14;6.00;;;4.60;;
36279;SDS011;22317;47.936;12.742;2022-11-15T08:49:59;5.20;;;4.40;;
36279;SDS011;22317;47.936;12.742;2022-11-15T08:52:43;4.70;;;3.50;;
36279;SDS011;22317;47.936;12.742;2022-11-15T08:55:28;5.77;;;5.20;;
36279;SDS011;22317;47.936;12.742;2022-11-15T08:58:13;4.23;;;3.83;;
36279;SDS011;22317;47.936;12.742;2022-11-15T09:00:57;4.40;;;3.60;;
36279;SDS011;22317;47.936;12.742;2022-11-15T09:03:42;4.33;;;3.20;;
36279;SDS011;22317;47.936;12.742;2022-11-15T09:06:26;3.33;;;3.13;;
36279;SDS011;22317;47.936;12.742;2022-11-15T09:09:10;3.73;;;3.10;;
36279;SDS011;22317;47.936;12.742;2022-11-15T09:11:55;10.53;;;3.23;;
36279;SDS011;22317;47.936;12.742;2022-11-15T09:14:40;4.10;;;2.83;;
36279;SDS011;22317;47.936;12.742;2022-11-15T09:17:24;12.70;;;7.87;;
36279;SDS011;22317;47.936;12.742;2022-11-15T09:20:09;12.77;;;8.13;;
36279;SDS011;22317;47.936;12.742;2022-11-15T09:22:53;5.27;;;3.47;;
36279;SDS011;22317;47.936;12.742;2022-11-15T09:25:37;4.10;;;2.90;;
36279;SDS011;22317;47.936;12.742;2022-11-15T09:28:21;4.53;;;3.10;;
36279;SDS011;22317;47.936;12.742;2022-11-15T09:31:06;3.13;;;2.90;;
36279;SDS011;22317;47.936;12.742;2022-11-15T09:33:50;4.93;;;3.80;;
36279;SDS011;22317;47.936;12.742;2022-11-15T09:36:38;3.73;;;3.03;;
36279;SDS011;22317;47.936;12.742;2022-11-15T09:39:22;2.90;;;2.70;;
36279;SDS011;22317;47.936;12.742;2022-11-15T09:50:50;4.00;;;2.30;;
36279;SDS011;22317;47.936;12.742;2022-11-15T09:53:35;4.18;;;2.78;;
36279;SDS011;22317;47.936;12.742;2022-11-15T09:56:17;3.97;;;2.65;;
36279;SDS011;22317;47.936;12.742;2022-11-15T10:04:38;5.03;;;4.63;;
36279;SDS011;22317;47.936;12.742;2022-11-15T10:07:16;3.33;;;2.65;;
36279;SDS011;22317;47.936;12.742;2022-11-15T10:12:46;2.58;;;2.38;;
36279;SDS011;22317;47.936;12.742;2022-11-15T10:15:15;7.32;;;2.38;;
36279;SDS011;22317;47.936;12.742;2022-11-15T10:20:56;2.78;;;2.40;;
36279;SDS011;22317;47.936;12.742;2022-11-15T10:23:24;3.13;;;2.50;;
36279;SDS011;22317;47.936;12.742;2022-11-15T10:25:51;2.53;;;2.33;;
36279;SDS011;22317;47.936;12.742;2022-11-15T10:28:26;2.95;;;2.30;;
36279;SDS011;22317;47.936;12.742;2022-11-15T10:30:53;3.97;;;2.40;;
36279;SDS011;22317;47.936;12.742;2022-11-15T10:33:34;2.90;;;2.70;;
36279;SDS011;22317;47.936;12.742;2022-11-15T10:41:13;2.80;;;2.60;;
36279;SDS011;22317;47.936;12.742;2022-11-15T10:43:43;2.70;;;2.50;;
36279;SDS011;22317;47.936;12.742;2022-11-15T10:46:20;3.72;;;2.33;;
36279;SDS011;22317;47.936;12.742;2022-11-15T10:48:47;2.58;;;2.38;;
36279;SDS011;22317;47.936;12.742;2022-11-15T10:51:20;5.32;;;2.50;;
36279;SDS011;22317;47.936;12.742;2022-11-15T10:53:53;2.72;;;2.50;;
36279;SDS011;22317;47.936;12.742;2022-11-15T10:56:25;3.25;;;2.50;;
36279;SDS011;22317;47.936;12.742;2022-11-15T10:58:56;2.53;;;2.42;;
36279;SDS011;22317;47.936;12.742;2022-11-15T11:01:23;2.90;;;2.47;;
36279;SDS011;22317;47.936;12.742;2022-11-15T11:04:24;3.25;;;2.55;;
36279;SDS011;22317;47.936;12.742;2022-11-15T11:12:03;3.95;;;2.70;;
36279;SDS011;22317;47.936;12.742;2022-11-15T11:14:31;5.00;;;2.50;;
36279;SDS011;22317;47.936;12.742;2022-11-15T11:22:54;2.80;;;2.60;;
36279;SDS011;22317;47.936;12.742;2022-11-15T11:28:05;3.10;;;2.90;;
36279;SDS011;22317;47.936;12.742;2022-11-15T11:33:40;2.72;;;2.53;;
36279;SDS011;22317;47.936;12.742;2022-11-15T11:42:12;5.88;;;5.20;;
36279;SDS011;22317;47.936;12.742;2022-11-15T11:49:51;3.40;;;3.10;;
36279;SDS011;22317;47.936;12.742;2022-11-15T11:52:26;3.45;;;3.25;;
36279;SDS011;22317;47.936;12.742;2022-11-15T12:00:29;3.53;;;3.22;;
36279;SDS011;22317;47.936;12.742;2022-11-15T12:05:28;3.70;;;3.40;;
36279;SDS011;22317;47.936;12.742;2022-11-15T12:08:22;4.10;;;3.80;;
36279;SDS011;22317;47.936;12.742;2022-11-15T12:13:36;3.70;;;3.10;;
36279;SDS011;22317;47.936;12.742;2022-11-15T12:16:17;4.75;;;3.55;;
36279;SDS011;22317;47.936;12.742;2022-11-15T12:18:47;4.75;;;4.35;;
36279;SDS011;22317;47.936;12.742;2022-11-15T12:23:52;3.70;;;3.33;;
36279;SDS011;22317;47.936;12.742;2022-11-15T12:26:25;3.90;;;3.60;;
36279;SDS011;22317;47.936;12.742;2022-11-15T12:28:59;3.90;;;3.60;;
36279;SDS011;22317;47.936;12.742;2022-11-15T12:36:46;3.90;;;3.60;;
36279;SDS011;22317;47.936;12.742;2022-11-15T12:39:14;3.63;;;3.42;;
36279;SDS011;22317;47.936;12.742;2022-11-15T12:41:44;3.83;;;3.50;;
36279;SDS011;22317;47.936;12.742;2022-11-15T13:04:53;3.50;;;3.30;;
36279;SDS011;22317;47.936;12.742;2022-11-15T13:22:49;3.55;;;3.35;;
36279;SDS011;22317;47.936;12.742;2022-11-15T13:30:40;4.07;;;3.80;;
36279;SDS011;22317;47.936;12.742;2022-11-15T13:33:19;3.90;;;3.60;;
36279;SDS011;22317;47.936;12.742;2022-11-15T13:35:57;3.90;;;3.60;;
36279;SDS011;22317;47.936;12.742;2022-11-15T13:40:53;3.72;;;3.42;;
36279;SDS011;22317;47.936;12.742;2022-11-15T13:43:26;3.60;;;3.40;;
36279;SDS011;22317;47.936;12.742;2022-11-15T13:48:31;4.07;;;3.67;;
36279;SDS011;22317;47.936;12.742;2022-11-15T13:50:59;3.80;;;3.55;;
36279;SDS011;22317;47.936;12.742;2022-11-15T13:53:30;4.40;;;3.55;;
36279;SDS011;22317;47.936;12.742;2022-11-15T13:55:57;4.10;;;3.85;;
36279;SDS011;22317;47.936;12.742;2022-11-15T13:58:24;5.13;;;4.72;;
36279;SDS011;22317;47.936;12.742;2022-11-15T14:00:57;4.50;;;4.30;;
36279;SDS011;22317;47.936;12.742;2022-11-15T14:03:26;4.03;;;3.75;;
36279;SDS011;22317;47.936;12.742;2022-11-15T14:06:07;4.53;;;4.15;;
36279;SDS011;22317;47.936;12.742;2022-11-15T14:08:35;3.83;;;3.53;;
36279;SDS011;22317;47.936;12.742;2022-11-15T14:13:38;3.65;;;3.45;;
36279;SDS011;22317;47.936;12.742;2022-11-15T14:18:58;4.15;;;3.65;;
36279;SDS011;22317;47.936;12.742;2022-11-15T14:21:24;3.88;;;3.58;;
36279;SDS011;22317;47.936;12.742;2022-11-15T14:23:50;3.53;;;3.33;;
36279;SDS011;22317;47.936;12.742;2022-11-15T14:28:53;3.78;;;3.08;;
36279;SDS011;22317;47.936;12.742;2022-11-15T14:31:19;6.47;;;3.42;;
36279;SDS011;22317;47.936;12.742;2022-11-15T14:33:46;4.53;;;4.13;;
36279;SDS011;22317;47.936;12.742;2022-11-15T14:36:13;10.80;;;9.98;;
36279;SDS011;22317;47.936;12.742;2022-11-15T14:38:40;10.82;;;9.82;;
36279;SDS011;22317;47.936;12.742;2022-11-15T14:41:26;8.48;;;5.72;;
36279;SDS011;22317;47.936;12.742;2022-11-15T14:43:52;5.35;;;4.90;;
36279;SDS011;22317;47.936;12.742;2022-11-15T14:46:18;15.75;;;4.05;;
36279;SDS011;22317;47.936;12.742;2022-11-15T14:48:45;6.03;;;3.90;;
36279;SDS011;22317;47.936;12.742;2022-11-15T14:51:12;5.68;;;3.83;;
36279;SDS011;22317;47.936;12.742;2022-11-15T14:53:39;4.63;;;3.95;;
36279;SDS011;22317;47.936;12.742;2022-11-15T14:56:06;6.22;;;3.30;;
36279;SDS011;22317;47.936;12.742;2022-11-15T14:58:32;3.63;;;3.33;;
36279;SDS011;22317;47.936;12.742;2022-11-15T15:00:58;4.93;;;3.17;;
36279;SDS011;22317;47.936;12.742;2022-11-15T15:03:24;4.85;;;3.70;;
36279;SDS011;22317;47.936;12.742;2022-11-15T15:05:50;5.15;;;4.80;;
36279;SDS011;22317;47.936;12.742;2022-11-15T15:08:16;5.28;;;4.60;;
36279;SDS011;22317;47.936;12.742;2022-11-15T15:10:43;6.05;;;4.63;;
36279;SDS011;22317;47.936;12.742;2022-11-15T15:13:20;5.63;;;4.53;;
36279;SDS011;22317;47.936;12.742;2022-11-15T15:15:46;10.50;;;5.55;;
36279;SDS011;22317;47.936;12.742;2022-11-15T15:18:13;8.63;;;7.07;;
36279;SDS011;22317;47.936;12.742;2022-11-15T15:20:40;9.68;;;6.97;;
36279;SDS011;22317;47.936;12.742;2022-11-15T15:23:10;9.32;;;7.47;;
36279;SDS011;22317;47.936;12.742;2022-11-15T15:25:40;13.15;;;6.90;;
36279;SDS011;22317;47.936;12.742;2022-11-15T15:28:07;11.52;;;8.45;;
36279;SDS011;22317;47.936;12.742;2022-11-15T15:30:32;13.90;;;9.35;;
36279;SDS011;22317;47.936;12.742;2022-11-15T15:32:58;19.40;;;8.98;;
36279;SDS011;22317;47.936;12.742;2022-11-15T15:35:26;11.25;;;5.70;;
36279;SDS011;22317;47.936;12.742;2022-11-15T15:37:56;19.85;;;11.00;;
36279;SDS011;22317;47.936;12.742;2022-11-15T15:40:23;11.85;;;9.93;;
36279;SDS011;22317;47.936;12.742;2022-11-15T15:42:49;7.90;;;7.10;;
36279;SDS011;22317;47.936;12.742;2022-11-15T15:45:16;12.43;;;8.07;;
36279;SDS011;22317;47.936;12.742;2022-11-15T15:47:42;9.45;;;6.55;;
36279;SDS011;22317;47.936;12.742;2022-11-15T15:52:47;16.70;;;12.27;;
36279;SDS011;22317;47.936;12.742;2022-11-15T15:55:14;22.70;;;14.43;;
36279;SDS011;22317;47.936;12.742;2022-11-15T15:57:40;16.67;;;8.98;;
36279;SDS011;22317;47.936;12.742;2022-11-15T16:00:06;14.15;;;7.85;;
36279;SDS011;22317;47.936;12.742;2022-11-15T16:02:37;14.65;;;7.20;;
36279;SDS011;22317;47.936;12.742;2022-11-15T16:05:03;17.00;;;11.67;;
36279;SDS011;22317;47.936;12.742;2022-11-15T16:07:29;21.38;;;7.78;;
36279;SDS011;22317;47.936;12.742;2022-11-15T16:09:56;11.93;;;7.63;;
36279;SDS011;22317;47.936;12.742;2022-11-15T16:12:25;22.92;;;12.05;;
36279;SDS011;22317;47.936;12.742;2022-11-15T16:14:51;26.67;;;16.60;;
36279;SDS011;22317;47.936;12.742;2022-11-15T16:17:18;18.67;;;14.17;;
36279;SDS011;22317;47.936;12.742;2022-11-15T16:19:46;17.27;;;12.73;;
36279;SDS011;22317;47.936;12.742;2022-11-15T16:22:12;19.90;;;12.48;;
36279;SDS011;22317;47.936;12.742;2022-11-15T16:24:38;18.40;;;10.48;;
36279;SDS011;22317;47.936;12.742;2022-11-15T16:27:04;23.40;;;13.53;;
36279;SDS011;22317;47.936;12.742;2022-11-15T16:29:29;18.73;;;12.70;;
36279;SDS011;22317;47.936;12.742;2022-11-15T16:31:55;24.17;;;15.07;;
36279;SDS011;22317;47.936;12.742;2022-11-15T16:34:21;18.17;;;13.50;;
36279;SDS011;22317;47.936;12.742;2022-11-15T16:36:47;21.00;;;13.50;;
36279;SDS011;22317;47.936;12.742;2022-11-15T16:39:13;21.83;;;11.40;;
36279;SDS011;22317;47.936;12.742;2022-11-15T16:41:42;20.77;;;10.73;;
36279;SDS011;22317;47.936;12.742;2022-11-15T16:44:12;21.40;;;11.17;;
36279;SDS011;22317;47.936;12.742;2022-11-15T16:46:38;22.40;;;12.30;;
36279;SDS011;22317;47.936;12.742;2022-11-15T16:49:13;17.77;;;10.33;;
36279;SDS011;22317;47.936;12.742;2022-11-15T16:51:40;25.90;;;14.70;;
36279;SDS011;22317;47.936;12.742;2022-11-15T16:54:09;34.03;;;18.23;;
36279;SDS011;22317;47.936;12.742;2022-11-15T16:56:35;29.03;;;16.30;;
36279;SDS011;22317;47.936;12.742;2022-11-15T16:59:01;31.67;;;14.10;;
36279;SDS011;22317;47.936;12.742;2022-11-15T17:01:27;21.07;;;11.50;;
36279;SDS011;22317;47.936;12.742;2022-11-15T17:03:59;23.17;;;11.03;;
36279;SDS011;22317;47.936;12.742;2022-11-15T17:06:40;20.27;;;10.50;;
36279;SDS011;22317;47.936;12.742;2022-11-15T17:09:10;16.30;;;12.07;;
36279;SDS011;22317;47.936;12.742;2022-11-15T17:11:50;13.43;;;9.43;;
36279;SDS011;22317;47.936;12.742;2022-11-15T17:14:16;14.20;;;9.40;;
36279;SDS011;22317;47.936;12.742;2022-11-15T17:16:42;15.47;;;10.07;;
36279;SDS011;22317;47.936;12.742;2022-11-15T17:19:12;16.67;;;9.97;;
36279;SDS011;22317;47.936;12.742;2022-11-15T17:21:39;16.37;;;9.00;;
36279;SDS011;22317;47.936;12.742;2022-11-15T17:24:06;13.87;;;9.37;;
36279;SDS011;22317;47.936;12.742;2022-11-15T17:26:32;13.20;;;10.10;;
36279;SDS011;22317;47.936;12.742;2022-11-15T17:28:58;14.10;;;9.10;;
36279;SDS011;22317;47.936;12.742;2022-11-15T17:31:25;18.73;;;9.27;;
36279;SDS011;22317;47.936;12.742;2022-11-15T17:33:52;12.97;;;8.83;;
36279;SDS011;22317;47.936;12.742;2022-11-15T17:36:18;12.67;;;8.97;;
36279;SDS011;22317;47.936;12.742;2022-11-15T17:38:43;11.73;;;9.13;;
36279;SDS011;22317;47.936;12.742;2022-11-15T17:41:14;16.63;;;9.87;;
36279;SDS011;22317;47.936;12.742;2022-11-15T17:43:41;15.10;;;11.33;;
36279;SDS011;22317;47.936;12.742;2022-11-15T17:46:09;26.83;;;15.83;;
36279;SDS011;22317;47.936;12.742;2022-11-15T17:48:36;25.77;;;16.50;;
36279;SDS011;22317;47.936;12.742;2022-11-15T17:51:03;14.33;;;9.80;;
36279;SDS011;22317;47.936;12.742;2022-11-15T17:53:31;44.10;;;24.30;;
36279;SDS011;22317;47.936;12.742;2022-11-15T17:56:05;18.40;;;12.67;;
36279;SDS011;22317;47.936;12.742;2022-11-15T17:58:35;17.17;;;10.63;;
36279;SDS011;22317;47.936;12.742;2022-11-15T18:01:05;14.60;;;9.70;;
36279;SDS011;22317;47.936;12.742;2022-11-15T18:03:39;14.47;;;9.83;;
36279;SDS011;22317;47.936;12.742;2022-11-15T18:06:05;16.93;;;10.10;;
36279;SDS011;22317;47.936;12.742;2022-11-15T18:08:36;11.50;;;10.00;;
36279;SDS011;22317;47.936;12.742;2022-11-15T18:13:30;16.27;;;10.60;;
36279;SDS011;22317;47.936;12.742;2022-11-15T18:15:56;15.60;;;9.83;;
36279;SDS011;22317;47.936;12.742;2022-11-15T18:18:26;17.37;;;9.97;;
36279;SDS011;22317;47.936;12.742;2022-11-15T18:23:33;13.67;;;10.47;;